Aeroporto :
LOGIN :

Iscrizione | Disclaimer

   EN    FR    IT 

 










Sommario :    VFR   VFR Marginale   IFR   IFR Intensivo   IFR Molto Intensivo
Visibilità : 
Base nubi : 
>= 8 km
>= 3000ft
5 / 8 km
1000 / 3000 ft
1500m / 5 km
500 / 1000 ft
800 / 1500m
200 / 500 ft
< 800m
< 200 ft
Simboli :   Temporali  Nebbia  Neve Forte  Precipitazioni Forti  Vento > 20 kt
SIGMETs :   Varie  Temporali  Ghiacco  Turbolenza  Onda orograficha  Ceneri Vulcaniche






- Altitudine del aeroporto : 623 ft


LFLH - Chalon-Champforgeuil

ULTIMO METAR :
  • 211330Z AUTO 01008KT 300V080 9999 ///TCU 10/01 Q1020

METARs OBSOLETI :
  • 211300Z AUTO 04008KT 360V080 9999 FEW030/// SCT047/// BKN062/// ///TCU 08/02 Q1020
  • 211230Z AUTO 35014KT 9999 FEW044/// BKN052/// BKN068/// ///TCU 09/00 Q1020
  • 211200Z AUTO 05004KT 360V100 9999 FEW037 BKN046 09/04 Q1020
  • 211130Z AUTO 35015KT 9999 SCT044/// BKN050/// BKN062/// ///TCU 08/02 Q1020
  • 211100Z AUTO 34013KT 310V010 9999 FEW034 BKN064 BKN078 10/02 Q1020
  • 211030Z AUTO 34009KT 310V010 9999 FEW024/// BKN056/// OVC066/// ///TCU 09/03 Q1021
  • 211000Z AUTO 01006KT 330V050 9999 FEW023 BKN040 OVC047 06/03 Q1021
  • 210930Z AUTO 36006KT 300V030 9999 FEW013 BKN038 BKN054 08/02 Q1021
  • 210900Z AUTO 36009KT 330V030 9999 SCT022 BKN028 BKN034 07/03 Q1021

TAF N/A



MetMap, La meteo Aeronautica in un colpo d'occhio ! - Copyright ORBIFLY Dicembre 2007 - Disclaimer

ORBIFLY MET'MAP TEAM :

Programmazione e sviluppo : Alexandra Zaïnal
Concezione : Baudouin d'Aumeries
Supporto tecnico e logistico : Manuel Goepfert
Aiuto : Marc-Olivier Méhu
Aiuto per la traduzione : Arnaldo La Scala




FONTI E CREDITI :

   NOAA